Millinocket, Maine
Current Conditions -  °F | °C
As of 9:53 PM on Thursday 27 Nov 2014 (Local Time) from KMLT Reporting Station
Clear Clear  
Wind Chill:   Ceiling: Unl
Heat Index: 17°   Visibility: 9mi
Dew Point: 12°   Wind: 7mph
Humidity: 81%   Direction: 330°NNW
Pressure: 30.02"   Gusts: NA
Location:  45.66°N, 68.71°W
Report Text: KMLT 280253Z AUTO 33006KT 9SM CLR M08/M11 A3002 RMK AO2 SLP176 T10831111 53003
Loading
Personal Weather Stations






























Interactive Weather Map New forecast layout! Learn more

10-Day Weather Forecast

Advertisements
Track Severe Weather on mobile